createdAt,value
2022-08-11T00:01:14.107Z,3.22
2022-08-11T00:03:47.628Z,2.60
2022-08-11T00:06:17.334Z,3.20
2022-08-11T00:08:45.996Z,2.97
2022-08-11T00:11:17.303Z,3.30
2022-08-11T00:13:47.563Z,3.15
2022-08-11T00:16:19.797Z,3.05
2022-08-11T00:18:50.352Z,2.90
2022-08-11T00:21:19.264Z,2.90
2022-08-11T00:24:08.674Z,3.03
2022-08-11T00:26:37.641Z,2.75
2022-08-11T00:29:10.203Z,2.90
2022-08-11T00:31:40.126Z,2.85
2022-08-11T00:34:12.649Z,3.20
2022-08-11T00:36:47.039Z,3.33
2022-08-11T00:39:16.353Z,2.55
2022-08-11T00:41:48.679Z,3.25
2022-08-11T00:44:39.278Z,3.05
2022-08-11T00:47:20.164Z,3.05
2022-08-11T00:50:02.669Z,2.88
2022-08-11T00:53:00.968Z,2.63
2022-08-11T00:55:59.546Z,3.00
2022-08-11T00:59:35.384Z,2.80
2022-08-11T01:02:18.760Z,3.10
2022-08-11T01:05:36.799Z,3.17
2022-08-11T01:08:43.668Z,2.63
2022-08-11T01:11:55.758Z,2.95
2022-08-11T01:14:52.123Z,3.38
2022-08-11T01:18:12.052Z,2.75
2022-08-11T01:21:10.424Z,2.85
2022-08-11T01:24:46.719Z,2.90
2022-08-11T01:27:41.743Z,2.78
2022-08-11T01:31:23.926Z,2.72
2022-08-11T01:34:55.607Z,2.80
2022-08-11T01:38:15.023Z,3.13
2022-08-11T01:41:02.101Z,2.78
2022-08-11T01:44:41.291Z,2.78
2022-08-11T01:47:36.963Z,3.25
2022-08-11T01:50:13.832Z,2.60
2022-08-11T01:53:04.739Z,3.20
2022-08-11T01:55:38.939Z,2.90
2022-08-11T01:58:14.502Z,3.00
2022-08-11T02:00:52.430Z,3.03
2022-08-11T02:03:25.908Z,2.75
2022-08-11T02:06:01.645Z,3.15
2022-08-11T02:08:44.762Z,2.92
2022-08-11T02:11:31.237Z,2.90
2022-08-11T02:14:20.897Z,3.10
2022-08-11T02:17:15.958Z,2.67
2022-08-11T02:20:10.887Z,2.92
2022-08-11T02:23:05.435Z,3.00
2022-08-11T02:25:39.037Z,2.70
2022-08-11T02:28:11.700Z,2.60
2022-08-11T02:31:15.579Z,2.70
2022-08-11T02:34:18.850Z,3.15
2022-08-11T02:36:57.161Z,2.90
2022-08-11T02:39:26.008Z,2.78
2022-08-11T02:42:35.143Z,2.95
2022-08-11T02:45:17.569Z,3.67
2022-08-11T02:48:07.164Z,3.45
2022-08-11T02:50:39.211Z,3.15
2022-08-11T02:53:12.509Z,3.35
2022-08-11T02:55:57.147Z,3.10
2022-08-11T02:59:08.859Z,3.30
2022-08-11T03:01:43.545Z,3.10
2022-08-11T03:04:15.871Z,3.40
2022-08-11T03:07:02.470Z,2.90
2022-08-11T03:09:45.287Z,2.95
2022-08-11T03:12:37.163Z,3.28
2022-08-11T03:15:29.564Z,3.10
2022-08-11T03:18:04.809Z,3.03
2022-08-11T03:20:40.076Z,3.40
2022-08-11T03:23:30.441Z,3.20
2022-08-11T03:26:03.780Z,3.15
2022-08-11T03:28:35.412Z,3.08
2022-08-11T03:31:18.628Z,3.42
2022-08-11T03:34:08.035Z,3.20
2022-08-11T03:37:17.188Z,3.30
2022-08-11T03:39:57.174Z,3.33
2022-08-11T03:42:30.838Z,3.10
2022-08-11T03:45:16.563Z,3.13
2022-08-11T03:48:05.977Z,3.75
2022-08-11T03:51:03.901Z,3.10
2022-08-11T03:53:57.473Z,3.38
2022-08-11T03:57:24.425Z,3.53
2022-08-11T04:00:17.834Z,3.00
2022-08-11T04:03:34.399Z,3.00
2022-08-11T04:06:43.439Z,3.47
2022-08-11T04:09:57.591Z,3.20
2022-08-11T04:13:00.987Z,3.42
2022-08-11T04:16:13.066Z,3.30
2022-08-11T04:19:37.602Z,3.70
2022-08-11T04:22:24.032Z,4.13
2022-08-11T04:25:32.084Z,3.80
2022-08-11T04:28:31.886Z,4.03
2022-08-11T04:31:12.308Z,3.95
2022-08-11T04:34:08.101Z,4.35
2022-08-11T04:37:12.142Z,4.50
2022-08-11T04:40:07.664Z,4.97
2022-08-11T04:43:25.117Z,4.78
2022-08-11T04:46:54.976Z,4.63
2022-08-11T04:50:11.618Z,4.50
2022-08-11T04:53:27.761Z,4.47
2022-08-11T04:56:28.418Z,4.65
2022-08-11T04:59:59.104Z,4.55
2022-08-11T05:03:04.921Z,4.45
2022-08-11T05:05:56.487Z,4.50
2022-08-11T05:09:11.721Z,4.57
2022-08-11T05:12:30.145Z,4.40
2022-08-11T05:15:16.742Z,4.47
2022-08-11T05:18:13.460Z,5.10
2022-08-11T05:21:11.437Z,4.93
2022-08-11T05:24:02.496Z,5.15
2022-08-11T05:26:50.005Z,5.13
2022-08-11T05:29:55.036Z,4.85
2022-08-11T05:32:41.002Z,4.90
2022-08-11T05:35:10.069Z,4.68
2022-08-11T05:38:02.741Z,4.80
2022-08-11T05:40:51.242Z,5.05
2022-08-11T05:44:20.532Z,4.65
2022-08-11T05:46:47.309Z,4.28
2022-08-11T05:49:33.660Z,15.75
2022-08-11T05:52:19.635Z,11.20
2022-08-11T05:55:07.567Z,6.47
2022-08-11T05:57:51.643Z,7.57
2022-08-11T06:00:24.338Z,5.93
2022-08-11T06:02:55.506Z,5.50
2022-08-11T06:05:25.210Z,5.28
2022-08-11T06:07:55.432Z,6.38
2022-08-11T06:10:28.754Z,6.78
2022-08-11T06:12:57.506Z,6.20
2022-08-11T06:15:27.706Z,7.70
2022-08-11T06:17:56.470Z,5.93
2022-08-11T06:20:25.680Z,6.55
2022-08-11T06:23:05.277Z,6.18
2022-08-11T06:25:36.011Z,7.20
2022-08-11T06:28:07.600Z,6.45
2022-08-11T06:30:42.684Z,7.00
2022-08-11T06:33:14.399Z,6.70
2022-08-11T06:35:56.470Z,6.93
2022-08-11T06:38:50.687Z,6.18
2022-08-11T06:41:34.485Z,7.03
2022-08-11T06:44:16.805Z,6.63
2022-08-11T06:46:51.023Z,6.90
2022-08-11T06:49:38.125Z,6.90
2022-08-11T06:52:12.847Z,6.88
2022-08-11T06:55:06.685Z,7.13
2022-08-11T06:57:52.683Z,7.57
2022-08-11T07:00:30.439Z,7.20
2022-08-11T07:03:09.541Z,6.60
2022-08-11T07:05:46.546Z,6.82
2022-08-11T07:09:04.294Z,7.50
2022-08-11T07:12:21.638Z,7.25
2022-08-11T07:15:10.240Z,7.22
2022-08-11T07:17:43.920Z,6.50
2022-08-11T07:20:31.116Z,7.13
2022-08-11T07:23:18.419Z,7.03
2022-08-11T07:26:07.973Z,6.00
2022-08-11T07:28:53.928Z,5.85
2022-08-11T07:31:29.213Z,5.90
2022-08-11T07:34:11.128Z,5.28
2022-08-11T07:36:48.561Z,5.00
2022-08-11T07:39:21.699Z,5.35
2022-08-11T07:41:51.026Z,4.60
2022-08-11T07:44:19.651Z,4.93
2022-08-11T07:47:07.602Z,4.57
2022-08-11T07:49:56.690Z,4.70
2022-08-11T07:52:34.113Z,3.95
2022-08-11T07:55:19.650Z,4.45
2022-08-11T07:58:15.136Z,3.92
2022-08-11T08:01:10.704Z,4.25
2022-08-11T08:04:08.575Z,3.75
2022-08-11T08:06:54.547Z,4.20
2022-08-11T08:09:41.904Z,3.88
2022-08-11T08:12:29.312Z,4.05
2022-08-11T08:15:15.438Z,4.40
2022-08-11T08:18:09.248Z,3.95
2022-08-11T08:20:41.953Z,4.70
2022-08-11T08:23:10.712Z,5.47
2022-08-11T08:25:41.862Z,8.02
2022-08-11T08:28:14.169Z,6.82
2022-08-11T08:30:48.228Z,5.53
2022-08-11T08:33:21.049Z,5.22
2022-08-11T08:35:56.173Z,5.10
2022-08-11T08:38:25.356Z,4.30
2022-08-11T08:40:56.582Z,4.65
2022-08-11T08:43:25.200Z,4.78
2022-08-11T08:45:55.738Z,4.28
2022-08-11T08:48:24.270Z,3.67
2022-08-11T08:51:13.436Z,3.80
2022-08-11T08:53:52.375Z,4.20
2022-08-11T08:56:28.422Z,3.22
2022-08-11T08:58:57.059Z,3.20
2022-08-11T09:01:25.656Z,3.28
2022-08-11T09:04:05.182Z,3.42
2022-08-11T09:06:40.096Z,3.10
2022-08-11T09:09:09.394Z,3.03
2022-08-11T09:11:53.503Z,2.55
2022-08-11T09:14:23.432Z,2.70
2022-08-11T09:16:52.464Z,2.15
2022-08-11T09:19:22.316Z,2.53
2022-08-11T09:22:12.685Z,2.40
2022-08-11T09:24:58.825Z,2.25
2022-08-11T09:27:28.673Z,2.20
2022-08-11T09:29:57.294Z,2.00
2022-08-11T09:32:26.668Z,1.80
2022-08-11T09:34:55.436Z,1.98
2022-08-11T09:37:54.729Z,2.10
2022-08-11T09:40:30.865Z,2.08
2022-08-11T09:43:33.069Z,2.08
2022-08-11T09:46:01.601Z,2.08
2022-08-11T09:48:33.454Z,2.10
2022-08-11T09:51:02.326Z,2.03
2022-08-11T09:53:37.176Z,2.05
2022-08-11T09:56:22.689Z,2.17
2022-08-11T09:58:52.488Z,1.70
2022-08-11T10:01:28.242Z,1.80
2022-08-11T10:04:02.612Z,2.00
2022-08-11T10:06:54.073Z,2.20
2022-08-11T10:09:25.524Z,2.10
2022-08-11T10:11:58.364Z,2.00
2022-08-11T10:14:46.629Z,2.00
2022-08-11T10:17:15.751Z,2.30
2022-08-11T10:19:44.833Z,1.95
2022-08-11T10:22:50.043Z,2.00
2022-08-11T10:25:36.362Z,2.38
2022-08-11T10:28:32.884Z,2.20
2022-08-11T10:31:13.784Z,1.90
2022-08-11T10:34:00.214Z,2.13
2022-08-11T10:36:29.166Z,1.95
2022-08-11T10:38:57.925Z,2.15
2022-08-11T10:42:06.902Z,1.80
2022-08-11T10:44:37.351Z,1.88
2022-08-11T10:47:25.315Z,1.98
2022-08-11T10:50:14.687Z,2.15
2022-08-11T10:53:00.908Z,1.90
2022-08-11T10:55:47.226Z,2.08
2022-08-11T10:58:33.431Z,1.98
2022-08-11T11:01:02.041Z,2.03
2022-08-11T11:03:34.591Z,2.05
2022-08-11T11:06:13.990Z,1.80
2022-08-11T11:09:04.573Z,2.00
2022-08-11T11:11:56.108Z,1.90
2022-08-11T11:14:45.805Z,2.10
2022-08-11T11:17:32.618Z,2.10
2022-08-11T11:20:02.612Z,1.95
2022-08-11T11:22:40.493Z,1.60
2022-08-11T11:25:19.099Z,2.00
2022-08-11T11:27:58.591Z,1.80
2022-08-11T11:30:29.784Z,1.80
2022-08-11T11:33:04.381Z,1.88
2022-08-11T11:35:40.228Z,1.83
2022-08-11T11:38:13.857Z,1.42
2022-08-11T11:40:43.666Z,1.88
2022-08-11T11:43:12.207Z,1.60
2022-08-11T11:45:41.765Z,1.70
2022-08-11T11:48:10.583Z,1.80
2022-08-11T11:50:40.377Z,1.80
2022-08-11T11:53:10.587Z,1.85
2022-08-11T11:55:39.123Z,2.03
2022-08-11T11:58:25.506Z,1.80
2022-08-11T12:01:11.744Z,1.70
2022-08-11T12:03:40.546Z,1.63
2022-08-11T12:06:14.351Z,1.60
2022-08-11T12:08:43.105Z,1.88
2022-08-11T12:11:30.510Z,1.80
2022-08-11T12:14:00.320Z,1.90
2022-08-11T12:16:32.981Z,1.70
2022-08-11T12:19:06.910Z,1.70
2022-08-11T12:21:37.398Z,1.65
2022-08-11T12:24:29.345Z,1.40
2022-08-11T12:27:17.702Z,1.50
2022-08-11T12:29:54.372Z,1.33
2022-08-11T12:32:24.686Z,1.20
2022-08-11T12:34:53.786Z,1.65
2022-08-11T12:37:30.431Z,1.38
2022-08-11T12:40:42.648Z,1.80
2022-08-11T12:43:38.958Z,1.80
2022-08-11T12:46:10.708Z,1.40
2022-08-11T12:49:03.495Z,1.60
2022-08-11T12:52:11.160Z,1.40
2022-08-11T12:54:59.754Z,1.55
2022-08-11T12:57:53.743Z,1.50
2022-08-11T13:00:40.070Z,1.27
2022-08-11T13:03:27.540Z,1.20
2022-08-11T13:05:58.854Z,1.20
2022-08-11T13:08:29.699Z,1.30
2022-08-11T13:11:18.879Z,1.25
2022-08-11T13:13:55.742Z,1.23
2022-08-11T13:16:27.761Z,1.73
2022-08-11T13:18:56.707Z,1.30
2022-08-11T13:21:25.130Z,1.60
2022-08-11T13:24:00.609Z,1.40
2022-08-11T13:26:49.347Z,1.20
2022-08-11T13:29:20.292Z,1.65
2022-08-11T13:31:48.879Z,1.50
2022-08-11T13:34:17.973Z,1.70
2022-08-11T13:36:46.569Z,1.42
2022-08-11T13:39:15.225Z,1.60
2022-08-11T13:41:47.996Z,1.25
2022-08-11T13:44:23.301Z,1.30
2022-08-11T13:46:55.557Z,1.25
2022-08-11T13:49:23.985Z,1.13
2022-08-11T13:51:53.803Z,1.27
2022-08-11T13:54:23.927Z,1.38
2022-08-11T13:56:55.303Z,1.13
2022-08-11T13:59:30.125Z,1.10
2022-08-11T14:02:22.167Z,1.67
2022-08-11T14:04:55.476Z,2.10
2022-08-11T14:07:26.346Z,2.80
2022-08-11T14:09:57.607Z,3.28
2022-08-11T14:12:46.699Z,3.03
2022-08-11T14:15:20.149Z,2.75
2022-08-11T14:17:52.361Z,2.30
2022-08-11T14:20:39.012Z,2.20
2022-08-11T14:23:11.085Z,2.15
2022-08-11T14:26:02.365Z,2.22
2022-08-11T14:28:40.207Z,2.40
2022-08-11T14:31:12.417Z,2.13
2022-08-11T14:34:00.045Z,1.80
2022-08-11T14:36:32.313Z,2.28
2022-08-11T14:39:02.069Z,2.22
2022-08-11T14:42:10.686Z,1.85
2022-08-11T14:44:57.518Z,2.17
2022-08-11T14:47:25.998Z,1.90
2022-08-11T14:50:06.518Z,1.92
2022-08-11T14:52:39.421Z,1.70
2022-08-11T14:55:26.826Z,2.25
2022-08-11T14:57:57.021Z,1.90
2022-08-11T15:00:27.497Z,1.90
2022-08-11T15:03:10.704Z,2.00
2022-08-11T15:06:00.216Z,1.80
2022-08-11T15:08:50.338Z,1.92
2022-08-11T15:11:37.495Z,1.65
2022-08-11T15:14:07.963Z,1.90
2022-08-11T15:16:55.855Z,1.60
2022-08-11T15:19:27.492Z,1.60
2022-08-11T15:22:13.283Z,1.67
2022-08-11T15:24:41.736Z,1.70
2022-08-11T15:27:36.553Z,1.90
2022-08-11T15:30:32.097Z,1.70
2022-08-11T15:33:23.485Z,1.50
2022-08-11T15:36:09.874Z,1.83
2022-08-11T15:38:38.970Z,1.67
2022-08-11T15:41:24.863Z,1.65
2022-08-11T15:44:11.811Z,1.38
2022-08-11T15:46:43.557Z,1.83
2022-08-11T15:49:21.884Z,1.70
2022-08-11T15:51:54.405Z,1.50
2022-08-11T15:54:26.516Z,1.50
2022-08-11T15:56:55.677Z,1.88
2022-08-11T15:59:43.838Z,1.60
2022-08-11T16:02:32.403Z,1.63
2022-08-11T16:05:04.311Z,1.63
2022-08-11T16:07:39.804Z,1.60
2022-08-11T16:10:15.605Z,1.88
2022-08-11T16:13:20.468Z,2.00
2022-08-11T16:16:08.619Z,1.73
2022-08-11T16:18:43.824Z,1.55
2022-08-11T16:21:26.154Z,1.73
2022-08-11T16:24:05.783Z,1.73
2022-08-11T16:27:07.749Z,1.80
2022-08-11T16:29:23.808Z,1.60
2022-08-11T16:32:06.680Z,1.70
2022-08-11T16:34:54.954Z,2.30
2022-08-11T16:37:42.349Z,1.80
2022-08-11T16:40:12.023Z,1.90
2022-08-11T16:43:08.712Z,1.90
2022-08-11T16:45:58.300Z,2.13
2022-08-11T16:48:35.081Z,2.20
2022-08-11T16:51:06.077Z,2.10
2022-08-11T16:53:45.991Z,2.15
2022-08-11T16:56:28.446Z,2.30
2022-08-11T16:59:16.557Z,2.20
2022-08-11T17:01:51.853Z,2.60
2022-08-11T17:04:49.098Z,2.10
2022-08-11T17:07:41.736Z,2.53
2022-08-11T17:10:51.310Z,2.60
2022-08-11T17:13:30.724Z,2.67
2022-08-11T17:16:08.534Z,2.92
2022-08-11T17:18:47.127Z,2.80
2022-08-11T17:21:21.217Z,2.92
2022-08-11T17:23:52.398Z,2.95
2022-08-11T17:26:26.560Z,3.40
2022-08-11T17:28:58.861Z,3.17
2022-08-11T17:31:45.316Z,3.03
2022-08-11T17:34:32.228Z,3.22
2022-08-11T17:37:01.223Z,3.28
2022-08-11T17:39:31.958Z,3.25
2022-08-11T17:42:19.660Z,2.95
2022-08-11T17:45:05.683Z,3.28
2022-08-11T17:47:51.817Z,3.28
2022-08-11T17:50:20.681Z,3.10
2022-08-11T17:53:06.808Z,3.47
2022-08-11T17:55:54.056Z,3.30
2022-08-11T17:58:41.750Z,3.92
2022-08-11T18:01:11.115Z,3.83
2022-08-11T18:03:40.860Z,4.03
2022-08-11T18:06:12.602Z,3.40
2022-08-11T18:09:02.224Z,3.60
2022-08-11T18:12:10.047Z,3.60
2022-08-11T18:14:56.926Z,3.65
2022-08-11T18:17:43.084Z,3.00
2022-08-11T18:20:29.502Z,3.38
2022-08-11T18:23:15.321Z,3.42
2022-08-11T18:26:07.054Z,3.20
2022-08-11T18:28:58.298Z,3.35
2022-08-11T18:31:46.113Z,3.28
2022-08-11T18:34:34.732Z,2.90
2022-08-11T18:37:25.941Z,2.80
2022-08-11T18:40:16.430Z,3.33
2022-08-11T18:43:03.720Z,3.08
2022-08-11T18:46:07.035Z,3.13
2022-08-11T18:48:56.444Z,3.28
2022-08-11T18:51:43.104Z,3.33
2022-08-11T18:54:30.670Z,3.65
2022-08-11T18:57:20.346Z,3.30
2022-08-11T19:00:06.738Z,3.83
2022-08-11T19:02:54.290Z,3.20
2022-08-11T19:06:32.175Z,2.83
2022-08-11T19:08:49.975Z,3.20
2022-08-11T19:11:42.529Z,3.10
2022-08-11T19:14:29.968Z,3.38
2022-08-11T19:17:44.555Z,3.70
2022-08-11T19:20:25.542Z,3.95
2022-08-11T19:23:14.068Z,4.10
2022-08-11T19:26:00.753Z,4.13
2022-08-11T19:28:46.883Z,3.83
2022-08-11T19:31:32.980Z,4.35
2022-08-11T19:34:19.935Z,3.88
2022-08-11T19:37:06.844Z,4.55
2022-08-11T19:39:54.814Z,4.32
2022-08-11T19:42:41.423Z,4.20
2022-08-11T19:45:28.230Z,3.67
2022-08-11T19:48:31.246Z,3.83
2022-08-11T19:51:18.773Z,3.90
2022-08-11T19:54:05.678Z,4.00
2022-08-11T19:56:53.807Z,3.90
2022-08-11T19:59:41.931Z,3.90
2022-08-11T20:02:28.650Z,4.10
2022-08-11T20:05:14.978Z,4.55
2022-08-11T20:08:08.666Z,4.30
2022-08-11T20:11:00.682Z,4.05
2022-08-11T20:13:48.199Z,4.38
2022-08-11T20:16:38.065Z,4.60
2022-08-11T20:19:26.172Z,4.10
2022-08-11T20:22:30.761Z,4.47
2022-08-11T20:25:17.369Z,4.35
2022-08-11T20:28:04.460Z,4.20
2022-08-11T20:30:52.010Z,4.15
2022-08-11T20:33:38.399Z,4.43
2022-08-11T20:36:25.430Z,4.30
2022-08-11T20:39:11.930Z,3.88
2022-08-11T20:41:59.564Z,4.03
2022-08-11T20:44:45.854Z,3.95
2022-08-11T20:47:56.529Z,3.97
2022-08-11T20:50:41.561Z,4.28
2022-08-11T20:53:35.976Z,4.50
2022-08-11T20:56:38.799Z,4.00
2022-08-11T20:59:26.173Z,4.30
2022-08-11T21:02:12.671Z,4.20
2022-08-11T21:05:01.026Z,4.40
2022-08-11T21:07:57.009Z,4.03
2022-08-11T21:10:51.277Z,3.92
2022-08-11T21:13:38.213Z,4.20
2022-08-11T21:16:27.326Z,4.22
2022-08-11T21:19:59.825Z,4.47
2022-08-11T21:22:31.010Z,4.25
2022-08-11T21:25:17.142Z,3.55
2022-08-11T21:28:04.166Z,4.20
2022-08-11T21:30:50.081Z,4.47
2022-08-11T21:33:36.137Z,3.38
2022-08-11T21:36:22.768Z,3.85
2022-08-11T21:39:10.120Z,3.63
2022-08-11T21:41:56.252Z,3.90
2022-08-11T21:44:42.726Z,3.60
2022-08-11T21:47:43.525Z,3.60
2022-08-11T21:50:30.644Z,3.88
2022-08-11T21:53:17.187Z,4.10
2022-08-11T21:56:04.658Z,3.63
2022-08-11T21:58:50.582Z,4.25
2022-08-11T22:01:37.245Z,3.95
2022-08-11T22:04:23.417Z,3.65
2022-08-11T22:07:10.094Z,3.70
2022-08-11T22:09:56.582Z,3.70
2022-08-11T22:12:45.172Z,3.72
2022-08-11T22:15:32.039Z,3.88
2022-08-11T22:18:19.664Z,3.80
2022-08-11T22:21:05.552Z,3.50
2022-08-11T22:23:52.056Z,3.95
2022-08-11T22:26:41.235Z,3.97
2022-08-11T22:29:49.937Z,4.13
2022-08-11T22:32:34.843Z,3.80
2022-08-11T22:35:21.514Z,3.60
2022-08-11T22:38:07.529Z,3.80
2022-08-11T22:40:53.617Z,4.10
2022-08-11T22:43:39.497Z,3.83
2022-08-11T22:46:27.023Z,4.15
2022-08-11T22:49:12.926Z,3.75
2022-08-11T22:51:59.063Z,3.63
2022-08-11T22:54:45.230Z,3.72
2022-08-11T22:57:31.107Z,3.40
2022-08-11T23:00:17.099Z,4.20
2022-08-11T23:03:04.810Z,3.70
2022-08-11T23:05:50.913Z,3.90
2022-08-11T23:08:36.927Z,3.90
2022-08-11T23:11:23.123Z,3.65
2022-08-11T23:14:08.952Z,3.53
2022-08-11T23:16:54.919Z,3.60
2022-08-11T23:20:08.598Z,3.30
2022-08-11T23:22:50.842Z,3.80
2022-08-11T23:25:36.817Z,3.40
2022-08-11T23:28:23.150Z,3.75
2022-08-11T23:31:09.723Z,3.55
2022-08-11T23:33:56.301Z,3.65
2022-08-11T23:36:46.969Z,3.38
2022-08-11T23:39:34.205Z,3.70
2022-08-11T23:42:21.244Z,3.42
2022-08-11T23:45:09.692Z,3.78
2022-08-11T23:47:56.984Z,3.58
2022-08-11T23:50:43.164Z,3.42
2022-08-11T23:53:30.833Z,3.58
2022-08-11T23:56:17.384Z,3.40
2022-08-11T23:59:08.769Z,3.30
